sensor_id;sensor_type;location;lat;lon;timestamp;P1;durP1;ratioP1;P2;durP2;ratioP2
20855;SDS011;63058;49.424;8.420;2023-06-26T00:02:00;6.30;;;2.58;;
20855;SDS011;63058;49.424;8.420;2023-06-26T00:04:26;4.05;;;2.92;;
20855;SDS011;63058;49.424;8.420;2023-06-26T00:06:52;4.57;;;2.78;;
20855;SDS011;63058;49.424;8.420;2023-06-26T00:09:26;8.32;;;3.20;;
20855;SDS011;63058;49.424;8.420;2023-06-26T00:11:51;3.10;;;2.22;;
20855;SDS011;63058;49.424;8.420;2023-06-26T00:14:17;3.42;;;2.63;;
20855;SDS011;63058;49.424;8.420;2023-06-26T00:16:45;3.85;;;2.60;;
20855;SDS011;63058;49.424;8.420;2023-06-26T00:19:11;3.78;;;2.78;;
20855;SDS011;63058;49.424;8.420;2023-06-26T00:21:37;2.90;;;2.58;;
20855;SDS011;63058;49.424;8.420;2023-06-26T00:24:03;3.55;;;2.65;;
20855;SDS011;63058;49.424;8.420;2023-06-26T00:26:28;2.90;;;2.50;;
20855;SDS011;63058;49.424;8.420;2023-06-26T00:28:54;4.38;;;2.83;;
20855;SDS011;63058;49.424;8.420;2023-06-26T00:31:19;3.22;;;2.72;;
20855;SDS011;63058;49.424;8.420;2023-06-26T00:33:45;3.95;;;2.67;;
20855;SDS011;63058;49.424;8.420;2023-06-26T00:36:10;5.78;;;2.95;;
20855;SDS011;63058;49.424;8.420;2023-06-26T00:38:36;5.70;;;2.95;;
20855;SDS011;63058;49.424;8.420;2023-06-26T00:41:01;5.38;;;2.95;;
20855;SDS011;63058;49.424;8.420;2023-06-26T00:43:27;3.50;;;2.75;;
20855;SDS011;63058;49.424;8.420;2023-06-26T00:45:52;3.53;;;3.08;;
20855;SDS011;63058;49.424;8.420;2023-06-26T00:48:18;4.95;;;3.00;;
20855;SDS011;63058;49.424;8.420;2023-06-26T00:50:45;3.60;;;3.25;;
20855;SDS011;63058;49.424;8.420;2023-06-26T00:53:10;4.90;;;2.85;;
20855;SDS011;63058;49.424;8.420;2023-06-26T00:55:36;4.38;;;3.40;;
20855;SDS011;63058;49.424;8.420;2023-06-26T00:58:02;4.45;;;2.90;;
20855;SDS011;63058;49.424;8.420;2023-06-26T01:00:28;3.92;;;2.85;;
20855;SDS011;63058;49.424;8.420;2023-06-26T01:02:54;3.90;;;2.92;;
20855;SDS011;63058;49.424;8.420;2023-06-26T01:05:23;3.22;;;2.55;;
20855;SDS011;63058;49.424;8.420;2023-06-26T01:07:50;3.70;;;2.75;;
20855;SDS011;63058;49.424;8.420;2023-06-26T01:10:16;3.55;;;2.92;;
20855;SDS011;63058;49.424;8.420;2023-06-26T01:12:42;3.78;;;2.80;;
20855;SDS011;63058;49.424;8.420;2023-06-26T01:15:08;3.90;;;3.00;;
20855;SDS011;63058;49.424;8.420;2023-06-26T01:17:34;3.50;;;2.92;;
20855;SDS011;63058;49.424;8.420;2023-06-26T01:20:03;3.75;;;3.03;;
20855;SDS011;63058;49.424;8.420;2023-06-26T01:28:03;5.03;;;3.00;;
20855;SDS011;63058;49.424;8.420;2023-06-26T01:30:30;3.20;;;2.85;;
20855;SDS011;63058;49.424;8.420;2023-06-26T01:32:57;3.85;;;3.08;;
20855;SDS011;63058;49.424;8.420;2023-06-26T01:35:24;3.38;;;3.08;;
20855;SDS011;63058;49.424;8.420;2023-06-26T01:37:50;3.80;;;3.05;;
20855;SDS011;63058;49.424;8.420;2023-06-26T01:40:15;3.85;;;2.80;;
20855;SDS011;63058;49.424;8.420;2023-06-26T01:42:41;4.30;;;2.90;;
20855;SDS011;63058;49.424;8.420;2023-06-26T01:45:14;3.97;;;3.13;;
20855;SDS011;63058;49.424;8.420;2023-06-26T01:47:50;4.57;;;3.35;;
20855;SDS011;63058;49.424;8.420;2023-06-26T01:50:18;5.25;;;3.65;;
20855;SDS011;63058;49.424;8.420;2023-06-26T01:55:35;5.20;;;3.10;;
20855;SDS011;63058;49.424;8.420;2023-06-26T01:58:12;3.70;;;3.08;;
20855;SDS011;63058;49.424;8.420;2023-06-26T02:00:39;4.60;;;3.28;;
20855;SDS011;63058;49.424;8.420;2023-06-26T02:03:05;5.68;;;3.05;;
20855;SDS011;63058;49.424;8.420;2023-06-26T02:05:31;4.20;;;3.30;;
20855;SDS011;63058;49.424;8.420;2023-06-26T02:07:58;3.97;;;3.53;;
20855;SDS011;63058;49.424;8.420;2023-06-26T02:10:23;4.30;;;3.47;;
20855;SDS011;63058;49.424;8.420;2023-06-26T02:12:49;4.93;;;3.17;;
20855;SDS011;63058;49.424;8.420;2023-06-26T02:15:14;6.65;;;3.40;;
20855;SDS011;63058;49.424;8.420;2023-06-26T02:17:40;5.00;;;3.35;;
20855;SDS011;63058;49.424;8.420;2023-06-26T02:20:06;4.35;;;3.28;;
20855;SDS011;63058;49.424;8.420;2023-06-26T02:22:33;3.15;;;2.78;;
20855;SDS011;63058;49.424;8.420;2023-06-26T02:24:58;3.95;;;3.22;;
20855;SDS011;63058;49.424;8.420;2023-06-26T02:27:24;4.28;;;3.35;;
20855;SDS011;63058;49.424;8.420;2023-06-26T02:29:50;5.93;;;3.60;;
20855;SDS011;63058;49.424;8.420;2023-06-26T02:32:15;4.07;;;3.03;;
20855;SDS011;63058;49.424;8.420;2023-06-26T02:34:41;4.03;;;3.47;;
20855;SDS011;63058;49.424;8.420;2023-06-26T02:37:07;4.13;;;3.13;;
20855;SDS011;63058;49.424;8.420;2023-06-26T02:39:33;3.47;;;3.05;;
20855;SDS011;63058;49.424;8.420;2023-06-26T02:41:59;4.13;;;3.50;;
20855;SDS011;63058;49.424;8.420;2023-06-26T02:44:25;5.07;;;3.90;;
20855;SDS011;63058;49.424;8.420;2023-06-26T02:46:50;4.10;;;3.13;;
20855;SDS011;63058;49.424;8.420;2023-06-26T02:49:17;3.90;;;3.25;;
20855;SDS011;63058;49.424;8.420;2023-06-26T02:51:42;4.80;;;3.47;;
20855;SDS011;63058;49.424;8.420;2023-06-26T02:54:08;4.70;;;3.17;;
20855;SDS011;63058;49.424;8.420;2023-06-26T02:56:33;3.40;;;3.08;;
20855;SDS011;63058;49.424;8.420;2023-06-26T02:58:59;3.95;;;2.97;;
20855;SDS011;63058;49.424;8.420;2023-06-26T03:01:24;3.55;;;3.08;;
20855;SDS011;63058;49.424;8.420;2023-06-26T03:03:50;4.80;;;3.47;;
20855;SDS011;63058;49.424;8.420;2023-06-26T03:06:16;4.35;;;3.38;;
20855;SDS011;63058;49.424;8.420;2023-06-26T03:08:42;4.47;;;3.60;;
20855;SDS011;63058;49.424;8.420;2023-06-26T03:11:08;4.25;;;3.65;;
20855;SDS011;63058;49.424;8.420;2023-06-26T03:13:34;5.38;;;3.47;;
20855;SDS011;63058;49.424;8.420;2023-06-26T03:16:00;6.22;;;3.20;;
20855;SDS011;63058;49.424;8.420;2023-06-26T03:18:26;3.58;;;3.28;;
20855;SDS011;63058;49.424;8.420;2023-06-26T03:20:52;5.07;;;3.63;;
20855;SDS011;63058;49.424;8.420;2023-06-26T03:23:22;4.60;;;3.40;;
20855;SDS011;63058;49.424;8.420;2023-06-26T03:25:48;3.22;;;2.83;;
20855;SDS011;63058;49.424;8.420;2023-06-26T03:28:14;3.58;;;3.15;;
20855;SDS011;63058;49.424;8.420;2023-06-26T03:30:40;3.75;;;3.30;;
20855;SDS011;63058;49.424;8.420;2023-06-26T03:33:06;5.68;;;3.50;;
20855;SDS011;63058;49.424;8.420;2023-06-26T03:35:31;3.95;;;3.20;;
20855;SDS011;63058;49.424;8.420;2023-06-26T03:37:57;4.03;;;3.10;;
20855;SDS011;63058;49.424;8.420;2023-06-26T03:40:23;4.22;;;3.50;;
20855;SDS011;63058;49.424;8.420;2023-06-26T03:42:49;4.25;;;3.42;;
20855;SDS011;63058;49.424;8.420;2023-06-26T03:45:15;4.57;;;3.53;;
20855;SDS011;63058;49.424;8.420;2023-06-26T03:47:40;4.10;;;3.33;;
20855;SDS011;63058;49.424;8.420;2023-06-26T03:50:06;3.90;;;3.50;;
20855;SDS011;63058;49.424;8.420;2023-06-26T03:52:32;4.55;;;3.60;;
20855;SDS011;63058;49.424;8.420;2023-06-26T03:54:58;4.45;;;3.67;;
20855;SDS011;63058;49.424;8.420;2023-06-26T03:57:23;4.15;;;3.13;;
20855;SDS011;63058;49.424;8.420;2023-06-26T03:59:49;4.03;;;3.42;;
20855;SDS011;63058;49.424;8.420;2023-06-26T04:02:15;4.60;;;3.47;;
20855;SDS011;63058;49.424;8.420;2023-06-26T04:04:40;3.58;;;3.03;;
20855;SDS011;63058;49.424;8.420;2023-06-26T04:07:06;5.25;;;3.60;;
20855;SDS011;63058;49.424;8.420;2023-06-26T04:09:31;4.35;;;2.92;;
20855;SDS011;63058;49.424;8.420;2023-06-26T04:11:57;4.72;;;3.30;;
20855;SDS011;63058;49.424;8.420;2023-06-26T04:14:23;3.95;;;3.28;;
20855;SDS011;63058;49.424;8.420;2023-06-26T04:16:48;5.13;;;3.40;;
20855;SDS011;63058;49.424;8.420;2023-06-26T04:19:14;4.38;;;3.28;;
20855;SDS011;63058;49.424;8.420;2023-06-26T04:21:39;6.10;;;3.33;;
20855;SDS011;63058;49.424;8.420;2023-06-26T04:24:05;2.90;;;2.63;;
20855;SDS011;63058;49.424;8.420;2023-06-26T04:26:30;3.38;;;3.08;;
20855;SDS011;63058;49.424;8.420;2023-06-26T04:28:56;5.32;;;3.47;;
20855;SDS011;63058;49.424;8.420;2023-06-26T04:31:22;5.47;;;3.63;;
20855;SDS011;63058;49.424;8.420;2023-06-26T04:33:47;4.03;;;3.03;;
20855;SDS011;63058;49.424;8.420;2023-06-26T04:36:19;3.40;;;3.10;;
20855;SDS011;63058;49.424;8.420;2023-06-26T04:38:45;4.40;;;3.30;;
20855;SDS011;63058;49.424;8.420;2023-06-26T04:41:10;3.47;;;3.15;;
20855;SDS011;63058;49.424;8.420;2023-06-26T04:43:36;3.80;;;3.42;;
20855;SDS011;63058;49.424;8.420;2023-06-26T04:46:04;4.50;;;3.40;;
20855;SDS011;63058;49.424;8.420;2023-06-26T04:48:30;4.63;;;3.70;;
20855;SDS011;63058;49.424;8.420;2023-06-26T04:50:56;3.88;;;3.45;;
20855;SDS011;63058;49.424;8.420;2023-06-26T04:53:24;4.38;;;3.80;;
20855;SDS011;63058;49.424;8.420;2023-06-26T04:55:50;6.13;;;3.83;;
20855;SDS011;63058;49.424;8.420;2023-06-26T04:58:16;3.97;;;3.30;;
20855;SDS011;63058;49.424;8.420;2023-06-26T05:00:42;4.45;;;3.75;;
20855;SDS011;63058;49.424;8.420;2023-06-26T05:03:11;4.47;;;3.55;;
20855;SDS011;63058;49.424;8.420;2023-06-26T05:05:38;3.75;;;3.22;;
20855;SDS011;63058;49.424;8.420;2023-06-26T05:08:13;4.63;;;3.42;;
20855;SDS011;63058;49.424;8.420;2023-06-26T05:10:47;4.53;;;4.05;;
20855;SDS011;63058;49.424;8.420;2023-06-26T05:13:13;4.35;;;3.50;;
20855;SDS011;63058;49.424;8.420;2023-06-26T05:15:43;4.40;;;3.38;;
20855;SDS011;63058;49.424;8.420;2023-06-26T05:18:09;4.40;;;3.80;;
20855;SDS011;63058;49.424;8.420;2023-06-26T05:20:35;3.70;;;3.30;;
20855;SDS011;63058;49.424;8.420;2023-06-26T05:23:01;4.60;;;3.53;;
20855;SDS011;63058;49.424;8.420;2023-06-26T05:25:28;5.10;;;3.95;;
20855;SDS011;63058;49.424;8.420;2023-06-26T05:27:55;4.55;;;3.42;;
20855;SDS011;63058;49.424;8.420;2023-06-26T05:30:22;4.72;;;4.05;;
20855;SDS011;63058;49.424;8.420;2023-06-26T05:32:50;4.40;;;3.78;;
20855;SDS011;63058;49.424;8.420;2023-06-26T05:35:16;4.28;;;3.72;;
20855;SDS011;63058;49.424;8.420;2023-06-26T05:37:43;4.47;;;3.72;;
20855;SDS011;63058;49.424;8.420;2023-06-26T05:40:09;4.32;;;3.47;;
20855;SDS011;63058;49.424;8.420;2023-06-26T05:42:35;3.70;;;3.40;;
20855;SDS011;63058;49.424;8.420;2023-06-26T05:45:01;4.00;;;3.60;;
20855;SDS011;63058;49.424;8.420;2023-06-26T05:47:26;3.80;;;3.38;;
20855;SDS011;63058;49.424;8.420;2023-06-26T05:49:52;3.92;;;3.53;;
20855;SDS011;63058;49.424;8.420;2023-06-26T05:52:18;5.80;;;3.40;;
20855;SDS011;63058;49.424;8.420;2023-06-26T05:54:44;4.25;;;3.85;;
20855;SDS011;63058;49.424;8.420;2023-06-26T05:57:09;4.53;;;3.17;;
20855;SDS011;63058;49.424;8.420;2023-06-26T05:59:37;4.40;;;3.72;;
20855;SDS011;63058;49.424;8.420;2023-06-26T06:02:06;4.00;;;3.40;;
20855;SDS011;63058;49.424;8.420;2023-06-26T06:04:31;3.95;;;3.30;;
20855;SDS011;63058;49.424;8.420;2023-06-26T06:06:57;4.70;;;3.25;;
20855;SDS011;63058;49.424;8.420;2023-06-26T06:09:23;4.68;;;3.90;;
20855;SDS011;63058;49.424;8.420;2023-06-26T06:11:48;4.50;;;3.65;;
20855;SDS011;63058;49.424;8.420;2023-06-26T06:14:14;4.30;;;3.72;;
20855;SDS011;63058;49.424;8.420;2023-06-26T06:16:39;4.15;;;3.50;;
20855;SDS011;63058;49.424;8.420;2023-06-26T06:19:05;5.68;;;3.58;;
20855;SDS011;63058;49.424;8.420;2023-06-26T06:21:32;3.75;;;3.45;;
20855;SDS011;63058;49.424;8.420;2023-06-26T06:23:58;4.20;;;3.65;;
20855;SDS011;63058;49.424;8.420;2023-06-26T06:26:23;5.10;;;4.03;;
20855;SDS011;63058;49.424;8.420;2023-06-26T06:28:49;4.30;;;3.80;;
20855;SDS011;63058;49.424;8.420;2023-06-26T06:31:14;4.38;;;3.60;;
20855;SDS011;63058;49.424;8.420;2023-06-26T06:33:40;4.05;;;3.65;;
20855;SDS011;63058;49.424;8.420;2023-06-26T06:36:06;4.07;;;3.60;;
20855;SDS011;63058;49.424;8.420;2023-06-26T06:38:31;3.63;;;3.25;;
20855;SDS011;63058;49.424;8.420;2023-06-26T06:40:57;4.57;;;4.18;;
20855;SDS011;63058;49.424;8.420;2023-06-26T06:43:22;5.20;;;3.58;;
20855;SDS011;63058;49.424;8.420;2023-06-26T06:45:48;5.70;;;4.07;;
20855;SDS011;63058;49.424;8.420;2023-06-26T06:48:14;4.63;;;3.67;;
20855;SDS011;63058;49.424;8.420;2023-06-26T06:50:39;4.30;;;3.42;;
20855;SDS011;63058;49.424;8.420;2023-06-26T06:53:05;4.13;;;3.53;;
20855;SDS011;63058;49.424;8.420;2023-06-26T06:55:30;4.65;;;3.70;;
20855;SDS011;63058;49.424;8.420;2023-06-26T06:57:56;4.97;;;3.70;;
20855;SDS011;63058;49.424;8.420;2023-06-26T07:00:21;4.63;;;3.63;;
20855;SDS011;63058;49.424;8.420;2023-06-26T07:02:47;3.83;;;3.42;;
20855;SDS011;63058;49.424;8.420;2023-06-26T07:05:12;3.38;;;3.08;;
20855;SDS011;63058;49.424;8.420;2023-06-26T07:07:38;5.05;;;3.65;;
20855;SDS011;63058;49.424;8.420;2023-06-26T07:10:05;4.25;;;3.50;;
20855;SDS011;63058;49.424;8.420;2023-06-26T07:12:35;4.78;;;3.60;;
20855;SDS011;63058;49.424;8.420;2023-06-26T07:15:02;4.13;;;3.38;;
20855;SDS011;63058;49.424;8.420;2023-06-26T07:17:29;4.20;;;3.50;;
20855;SDS011;63058;49.424;8.420;2023-06-26T07:19:55;3.97;;;3.33;;
20855;SDS011;63058;49.424;8.420;2023-06-26T07:22:21;4.28;;;3.20;;
20855;SDS011;63058;49.424;8.420;2023-06-26T07:24:48;4.40;;;3.38;;
20855;SDS011;63058;49.424;8.420;2023-06-26T07:27:14;3.90;;;3.40;;
20855;SDS011;63058;49.424;8.420;2023-06-26T07:29:40;4.72;;;3.42;;
20855;SDS011;63058;49.424;8.420;2023-06-26T07:32:06;4.43;;;3.90;;
20855;SDS011;63058;49.424;8.420;2023-06-26T07:34:32;5.68;;;3.70;;
20855;SDS011;63058;49.424;8.420;2023-06-26T07:36:57;4.43;;;3.75;;
20855;SDS011;63058;49.424;8.420;2023-06-26T07:39:23;4.10;;;3.38;;
20855;SDS011;63058;49.424;8.420;2023-06-26T07:41:48;4.32;;;3.58;;
20855;SDS011;63058;49.424;8.420;2023-06-26T07:44:14;5.78;;;4.00;;
20855;SDS011;63058;49.424;8.420;2023-06-26T07:46:40;3.95;;;3.30;;
20855;SDS011;63058;49.424;8.420;2023-06-26T07:49:05;4.43;;;3.10;;
20855;SDS011;63058;49.424;8.420;2023-06-26T07:51:31;3.58;;;3.17;;
20855;SDS011;63058;49.424;8.420;2023-06-26T07:53:57;3.95;;;3.38;;
20855;SDS011;63058;49.424;8.420;2023-06-26T07:56:22;3.83;;;3.05;;
20855;SDS011;63058;49.424;8.420;2023-06-26T07:58:48;5.45;;;3.33;;
20855;SDS011;63058;49.424;8.420;2023-06-26T08:01:13;3.33;;;3.03;;
20855;SDS011;63058;49.424;8.420;2023-06-26T08:03:39;3.53;;;3.03;;
20855;SDS011;63058;49.424;8.420;2023-06-26T08:06:05;4.25;;;3.35;;
20855;SDS011;63058;49.424;8.420;2023-06-26T08:08:31;4.38;;;3.40;;
20855;SDS011;63058;49.424;8.420;2023-06-26T08:10:56;4.20;;;3.28;;
20855;SDS011;63058;49.424;8.420;2023-06-26T08:13:22;3.47;;;3.03;;
20855;SDS011;63058;49.424;8.420;2023-06-26T08:15:47;4.80;;;3.45;;
20855;SDS011;63058;49.424;8.420;2023-06-26T08:18:13;4.00;;;3.55;;
20855;SDS011;63058;49.424;8.420;2023-06-26T08:20:38;3.97;;;3.58;;
20855;SDS011;63058;49.424;8.420;2023-06-26T08:23:04;5.00;;;3.45;;
20855;SDS011;63058;49.424;8.420;2023-06-26T08:25:30;4.30;;;3.30;;
20855;SDS011;63058;49.424;8.420;2023-06-26T08:27:55;8.38;;;3.65;;
20855;SDS011;63058;49.424;8.420;2023-06-26T08:30:21;3.78;;;2.92;;
20855;SDS011;63058;49.424;8.420;2023-06-26T08:32:48;4.20;;;3.20;;
20855;SDS011;63058;49.424;8.420;2023-06-26T08:35:13;3.85;;;2.70;;
20855;SDS011;63058;49.424;8.420;2023-06-26T08:37:39;7.90;;;2.95;;
20855;SDS011;63058;49.424;8.420;2023-06-26T08:40:05;7.93;;;3.50;;
20855;SDS011;63058;49.424;8.420;2023-06-26T08:42:31;8.65;;;3.15;;
20855;SDS011;63058;49.424;8.420;2023-06-26T08:44:57;3.58;;;3.20;;
20855;SDS011;63058;49.424;8.420;2023-06-26T08:47:23;3.83;;;3.42;;
20855;SDS011;63058;49.424;8.420;2023-06-26T08:52:41;3.88;;;3.22;;
20855;SDS011;63058;49.424;8.420;2023-06-26T08:55:10;2.67;;;2.47;;
20855;SDS011;63058;49.424;8.420;2023-06-26T08:57:39;4.18;;;3.08;;
20855;SDS011;63058;49.424;8.420;2023-06-26T09:00:05;5.43;;;3.40;;
20855;SDS011;63058;49.424;8.420;2023-06-26T09:02:33;6.20;;;3.47;;
20855;SDS011;63058;49.424;8.420;2023-06-26T09:05:00;3.95;;;3.10;;
20855;SDS011;63058;49.424;8.420;2023-06-26T09:07:27;5.03;;;3.42;;
20855;SDS011;63058;49.424;8.420;2023-06-26T09:09:54;4.28;;;2.95;;
20855;SDS011;63058;49.424;8.420;2023-06-26T09:12:20;4.10;;;3.42;;
20855;SDS011;63058;49.424;8.420;2023-06-26T09:14:46;4.03;;;3.33;;
20855;SDS011;63058;49.424;8.420;2023-06-26T09:17:12;4.75;;;2.95;;
20855;SDS011;63058;49.424;8.420;2023-06-26T09:19:38;6.55;;;3.20;;
20855;SDS011;63058;49.424;8.420;2023-06-26T09:22:04;4.40;;;3.55;;
20855;SDS011;63058;49.424;8.420;2023-06-26T09:24:30;4.07;;;3.38;;
20855;SDS011;63058;49.424;8.420;2023-06-26T09:26:55;3.40;;;2.95;;
20855;SDS011;63058;49.424;8.420;2023-06-26T09:29:21;8.55;;;3.53;;
20855;SDS011;63058;49.424;8.420;2023-06-26T09:31:47;3.58;;;3.22;;
20855;SDS011;63058;49.424;8.420;2023-06-26T09:34:12;3.88;;;3.58;;
20855;SDS011;63058;49.424;8.420;2023-06-26T09:36:38;3.95;;;3.47;;
20855;SDS011;63058;49.424;8.420;2023-06-26T09:39:04;5.47;;;3.60;;
20855;SDS011;63058;49.424;8.420;2023-06-26T09:41:35;5.03;;;3.40;;
20855;SDS011;63058;49.424;8.420;2023-06-26T09:44:11;3.85;;;3.53;;
20855;SDS011;63058;49.424;8.420;2023-06-26T09:46:38;3.63;;;3.33;;
20855;SDS011;63058;49.424;8.420;2023-06-26T09:49:05;4.22;;;3.10;;
20855;SDS011;63058;49.424;8.420;2023-06-26T09:51:43;4.03;;;3.60;;
20855;SDS011;63058;49.424;8.420;2023-06-26T09:54:09;4.57;;;3.80;;
20855;SDS011;63058;49.424;8.420;2023-06-26T09:56:35;3.75;;;3.33;;
20855;SDS011;63058;49.424;8.420;2023-06-26T09:59:02;4.03;;;3.50;;
20855;SDS011;63058;49.424;8.420;2023-06-26T10:01:30;3.50;;;3.20;;
20855;SDS011;63058;49.424;8.420;2023-06-26T10:03:56;6.32;;;3.10;;
20855;SDS011;63058;49.424;8.420;2023-06-26T10:06:32;7.05;;;3.70;;
20855;SDS011;63058;49.424;8.420;2023-06-26T10:09:01;4.85;;;3.83;;
20855;SDS011;63058;49.424;8.420;2023-06-26T10:11:32;3.60;;;3.30;;
20855;SDS011;63058;49.424;8.420;2023-06-26T10:14:06;6.18;;;3.55;;
20855;SDS011;63058;49.424;8.420;2023-06-26T10:16:32;3.78;;;3.38;;
20855;SDS011;63058;49.424;8.420;2023-06-26T10:19:03;4.72;;;3.50;;
20855;SDS011;63058;49.424;8.420;2023-06-26T10:21:33;3.65;;;3.35;;
20855;SDS011;63058;49.424;8.420;2023-06-26T10:23:59;3.90;;;3.50;;
20855;SDS011;63058;49.424;8.420;2023-06-26T10:26:27;4.20;;;3.80;;
20855;SDS011;63058;49.424;8.420;2023-06-26T10:28:54;9.25;;;4.15;;
20855;SDS011;63058;49.424;8.420;2023-06-26T10:31:21;4.05;;;3.65;;
20855;SDS011;63058;49.424;8.420;2023-06-26T10:33:51;5.95;;;3.85;;
20855;SDS011;63058;49.424;8.420;2023-06-26T10:36:18;6.90;;;4.22;;
20855;SDS011;63058;49.424;8.420;2023-06-26T10:38:55;7.93;;;4.20;;
20855;SDS011;63058;49.424;8.420;2023-06-26T10:41:22;4.32;;;3.67;;
20855;SDS011;63058;49.424;8.420;2023-06-26T10:43:50;4.18;;;3.78;;
20855;SDS011;63058;49.424;8.420;2023-06-26T10:46:51;8.30;;;3.70;;
20855;SDS011;63058;49.424;8.420;2023-06-26T10:49:25;4.95;;;4.03;;
20855;SDS011;63058;49.424;8.420;2023-06-26T10:51:53;4.22;;;3.60;;
20855;SDS011;63058;49.424;8.420;2023-06-26T10:54:19;6.15;;;3.90;;
20855;SDS011;63058;49.424;8.420;2023-06-26T10:59:15;4.10;;;3.63;;
20855;SDS011;63058;49.424;8.420;2023-06-26T11:01:43;6.22;;;3.63;;
20855;SDS011;63058;49.424;8.420;2023-06-26T11:04:10;4.72;;;4.07;;
20855;SDS011;63058;49.424;8.420;2023-06-26T11:06:36;4.60;;;3.80;;
20855;SDS011;63058;49.424;8.420;2023-06-26T11:14:17;4.32;;;3.75;;
20855;SDS011;63058;49.424;8.420;2023-06-26T11:16:43;4.10;;;3.42;;
20855;SDS011;63058;49.424;8.420;2023-06-26T11:19:09;5.07;;;4.03;;
20855;SDS011;63058;49.424;8.420;2023-06-26T11:21:36;3.45;;;3.15;;
20855;SDS011;63058;49.424;8.420;2023-06-26T11:24:04;5.65;;;3.33;;
20855;SDS011;63058;49.424;8.420;2023-06-26T11:26:31;3.33;;;2.67;;
20855;SDS011;63058;49.424;8.420;2023-06-26T11:29:03;7.03;;;3.55;;
20855;SDS011;63058;49.424;8.420;2023-06-26T11:33:56;6.18;;;3.33;;
20855;SDS011;63058;49.424;8.420;2023-06-26T11:36:23;5.07;;;3.55;;
20855;SDS011;63058;49.424;8.420;2023-06-26T11:38:57;4.03;;;3.40;;
20855;SDS011;63058;49.424;8.420;2023-06-26T11:41:28;3.88;;;3.10;;
20855;SDS011;63058;49.424;8.420;2023-06-26T11:44:01;3.75;;;3.33;;
20855;SDS011;63058;49.424;8.420;2023-06-26T11:46:27;4.60;;;3.40;;
20855;SDS011;63058;49.424;8.420;2023-06-26T11:48:53;4.07;;;3.63;;
20855;SDS011;63058;49.424;8.420;2023-06-26T11:51:19;4.95;;;3.03;;
20855;SDS011;63058;49.424;8.420;2023-06-26T11:53:45;3.67;;;3.03;;
20855;SDS011;63058;49.424;8.420;2023-06-26T11:56:13;5.50;;;3.03;;
20855;SDS011;63058;49.424;8.420;2023-06-26T11:58:56;5.68;;;3.65;;
20855;SDS011;63058;49.424;8.420;2023-06-26T12:03:59;3.20;;;2.88;;
20855;SDS011;63058;49.424;8.420;2023-06-26T12:06:28;3.92;;;3.50;;
20855;SDS011;63058;49.424;8.420;2023-06-26T12:08:55;5.93;;;2.90;;
20855;SDS011;63058;49.424;8.420;2023-06-26T12:11:21;4.00;;;2.97;;
20855;SDS011;63058;49.424;8.420;2023-06-26T12:13:49;4.35;;;3.03;;
20855;SDS011;63058;49.424;8.420;2023-06-26T12:16:15;4.03;;;2.80;;
20855;SDS011;63058;49.424;8.420;2023-06-26T12:18:41;6.13;;;3.55;;
20855;SDS011;63058;49.424;8.420;2023-06-26T12:21:06;3.63;;;2.88;;
20855;SDS011;63058;49.424;8.420;2023-06-26T12:23:38;4.85;;;2.90;;
20855;SDS011;63058;49.424;8.420;2023-06-26T12:26:17;4.20;;;2.75;;
20855;SDS011;63058;49.424;8.420;2023-06-26T12:28:46;4.10;;;3.15;;
20855;SDS011;63058;49.424;8.420;2023-06-26T12:31:15;3.25;;;2.95;;
20855;SDS011;63058;49.424;8.420;2023-06-26T12:33:45;4.10;;;2.67;;
20855;SDS011;63058;49.424;8.420;2023-06-26T12:36:11;3.38;;;2.90;;
20855;SDS011;63058;49.424;8.420;2023-06-26T12:38:37;4.13;;;2.60;;
20855;SDS011;63058;49.424;8.420;2023-06-26T12:41:03;5.10;;;3.47;;
20855;SDS011;63058;49.424;8.420;2023-06-26T12:43:28;5.03;;;3.55;;
20855;SDS011;63058;49.424;8.420;2023-06-26T12:45:54;4.40;;;3.80;;
20855;SDS011;63058;49.424;8.420;2023-06-26T12:48:21;4.13;;;3.55;;
20855;SDS011;63058;49.424;8.420;2023-06-26T12:50:47;3.67;;;3.17;;
20855;SDS011;63058;49.424;8.420;2023-06-26T12:53:13;4.85;;;3.33;;
20855;SDS011;63058;49.424;8.420;2023-06-26T12:55:38;3.80;;;3.05;;
20855;SDS011;63058;49.424;8.420;2023-06-26T12:58:04;3.50;;;3.00;;
20855;SDS011;63058;49.424;8.420;2023-06-26T13:00:30;7.38;;;2.95;;
20855;SDS011;63058;49.424;8.420;2023-06-26T13:02:57;3.45;;;3.15;;
20855;SDS011;63058;49.424;8.420;2023-06-26T13:05:23;4.20;;;3.80;;
20855;SDS011;63058;49.424;8.420;2023-06-26T13:07:49;7.10;;;4.47;;
20855;SDS011;63058;49.424;8.420;2023-06-26T13:10:14;8.73;;;5.45;;
20855;SDS011;63058;49.424;8.420;2023-06-26T13:12:40;8.85;;;5.90;;
20855;SDS011;63058;49.424;8.420;2023-06-26T13:15:05;10.50;;;6.10;;
20855;SDS011;63058;49.424;8.420;2023-06-26T13:17:32;9.88;;;7.05;;
20855;SDS011;63058;49.424;8.420;2023-06-26T13:19:57;8.85;;;6.32;;
20855;SDS011;63058;49.424;8.420;2023-06-26T13:22:23;8.48;;;6.22;;
20855;SDS011;63058;49.424;8.420;2023-06-26T13:24:48;6.00;;;5.30;;
20855;SDS011;63058;49.424;8.420;2023-06-26T13:27:14;5.93;;;5.32;;
20855;SDS011;63058;49.424;8.420;2023-06-26T13:29:41;6.22;;;5.50;;
20855;SDS011;63058;49.424;8.420;2023-06-26T13:32:07;6.95;;;5.32;;
20855;SDS011;63058;49.424;8.420;2023-06-26T13:34:33;7.22;;;5.18;;
20855;SDS011;63058;49.424;8.420;2023-06-26T13:36:58;5.60;;;4.63;;
20855;SDS011;63058;49.424;8.420;2023-06-26T13:39:25;5.90;;;4.80;;
20855;SDS011;63058;49.424;8.420;2023-06-26T13:41:50;7.68;;;4.63;;
20855;SDS011;63058;49.424;8.420;2023-06-26T13:44:16;4.75;;;3.85;;
20855;SDS011;63058;49.424;8.420;2023-06-26T13:46:42;6.10;;;3.63;;
20855;SDS011;63058;49.424;8.420;2023-06-26T13:49:07;6.68;;;3.85;;
20855;SDS011;63058;49.424;8.420;2023-06-26T13:51:33;4.15;;;3.30;;
20855;SDS011;63058;49.424;8.420;2023-06-26T13:53:58;4.85;;;3.47;;
20855;SDS011;63058;49.424;8.420;2023-06-26T13:56:25;8.00;;;2.65;;
20855;SDS011;63058;49.424;8.420;2023-06-26T13:58:51;2.72;;;2.20;;
20855;SDS011;63058;49.424;8.420;2023-06-26T14:01:16;4.63;;;2.53;;
20855;SDS011;63058;49.424;8.420;2023-06-26T14:03:42;3.55;;;2.00;;
20855;SDS011;63058;49.424;8.420;2023-06-26T14:06:07;2.35;;;1.73;;
20855;SDS011;63058;49.424;8.420;2023-06-26T14:08:33;4.82;;;1.75;;
20855;SDS011;63058;49.424;8.420;2023-06-26T14:10:58;2.53;;;1.50;;
20855;SDS011;63058;49.424;8.420;2023-06-26T14:13:26;2.65;;;1.50;;
20855;SDS011;63058;49.424;8.420;2023-06-26T14:15:51;5.25;;;1.67;;
20855;SDS011;63058;49.424;8.420;2023-06-26T14:18:17;3.47;;;1.48;;
20855;SDS011;63058;49.424;8.420;2023-06-26T14:20:43;7.60;;;1.45;;
20855;SDS011;63058;49.424;8.420;2023-06-26T14:23:09;2.03;;;1.10;;
20855;SDS011;63058;49.424;8.420;2023-06-26T14:25:34;2.05;;;1.20;;
20855;SDS011;63058;49.424;8.420;2023-06-26T14:28:01;2.28;;;1.30;;
20855;SDS011;63058;49.424;8.420;2023-06-26T14:30:26;3.00;;;1.52;;
20855;SDS011;63058;49.424;8.420;2023-06-26T14:32:52;3.67;;;1.83;;
20855;SDS011;63058;49.424;8.420;2023-06-26T14:35:17;2.75;;;1.33;;
20855;SDS011;63058;49.424;8.420;2023-06-26T14:37:43;1.65;;;1.10;;
20855;SDS011;63058;49.424;8.420;2023-06-26T14:40:09;4.03;;;1.15;;
20855;SDS011;63058;49.424;8.420;2023-06-26T14:42:35;3.42;;;1.13;;
20855;SDS011;63058;49.424;8.420;2023-06-26T14:45:01;3.00;;;1.65;;
20855;SDS011;63058;49.424;8.420;2023-06-26T14:47:27;14.27;;;12.80;;
20855;SDS011;63058;49.424;8.420;2023-06-26T14:49:52;9.25;;;8.35;;
20855;SDS011;63058;49.424;8.420;2023-06-26T14:52:18;4.88;;;3.80;;
20855;SDS011;63058;49.424;8.420;2023-06-26T14:54:43;5.30;;;2.40;;
20855;SDS011;63058;49.424;8.420;2023-06-26T14:57:09;5.40;;;1.70;;
20855;SDS011;63058;49.424;8.420;2023-06-26T14:59:35;2.75;;;1.48;;
20855;SDS011;63058;49.424;8.420;2023-06-26T15:02:01;3.00;;;1.20;;
20855;SDS011;63058;49.424;8.420;2023-06-26T15:04:27;4.20;;;1.40;;
20855;SDS011;63058;49.424;8.420;2023-06-26T15:06:52;6.20;;;1.30;;
20855;SDS011;63058;49.424;8.420;2023-06-26T15:09:18;3.30;;;1.15;;